Lambs Grove, Iowa
Current Conditions -  °F | °C
As of 2:15 PM on Thursday 29 Jan 2015 (Local Time) from KTNU Reporting Station
Overcast Overcast  
Wind Chill: 21°   Ceiling: 2200
Heat Index: 34°   Visibility: 10mi
Dew Point: 27°   Wind: 26mph
Humidity: 75%   Direction: 340°NNW
Pressure: 30.27"   Gusts: 38mph
Location:  41.7317°N, 93.0122°W
Report Text: KTNU 292015Z AUTO 34023G33KT 10SM OVC022 01/M03 A3027 RMK AO2
Loading
Personal Weather Stations






























Interactive Weather Map New forecast layout! Learn more

10-Day Weather Forecast

Advertisements
Track Severe Weather on mobile